createdAt,value
2023-02-16T00:01:36.094Z,78.02
2023-02-16T00:04:38.735Z,78.37
2023-02-16T00:07:41.075Z,78.73
2023-02-16T00:11:05.542Z,78.65
2023-02-16T00:14:10.668Z,78.89
2023-02-16T00:17:13.433Z,79.13
2023-02-16T00:20:16.728Z,79.25
2023-02-16T00:23:19.422Z,79.20
2023-02-16T00:26:27.767Z,79.52
2023-02-16T00:29:33.452Z,79.43
2023-02-16T00:32:35.775Z,79.35
2023-02-16T00:35:38.986Z,79.25
2023-02-16T00:38:41.539Z,79.37
2023-02-16T00:41:50.691Z,79.35
2023-02-16T00:44:55.688Z,79.28
2023-02-16T00:47:58.349Z,79.27
2023-02-16T00:51:00.678Z,79.59
2023-02-16T00:54:03.475Z,80.04
2023-02-16T00:57:06.566Z,79.80
2023-02-16T01:00:21.097Z,80.21
2023-02-16T01:03:26.528Z,80.35
2023-02-16T01:06:47.758Z,80.75
2023-02-16T01:10:08.722Z,80.21
2023-02-16T01:13:12.068Z,80.37
2023-02-16T01:16:36.513Z,80.50
2023-02-16T01:19:39.239Z,80.78
2023-02-16T01:22:41.651Z,80.84
2023-02-16T01:25:44.360Z,80.76
2023-02-16T01:28:47.877Z,80.91
2023-02-16T01:31:51.615Z,80.67
2023-02-16T01:34:54.005Z,80.97
2023-02-16T01:37:57.103Z,80.97
2023-02-16T01:41:10.527Z,81.06
2023-02-16T01:44:23.712Z,80.89
2023-02-16T01:47:58.548Z,80.79
2023-02-16T01:51:28.480Z,80.50
2023-02-16T01:54:43.005Z,80.42
2023-02-16T01:57:58.306Z,80.20
2023-02-16T02:01:00.624Z,80.03
2023-02-16T02:04:38.003Z,80.23
2023-02-16T02:08:25.089Z,80.54
2023-02-16T02:11:39.078Z,80.86
2023-02-16T02:14:42.858Z,81.27
2023-02-16T02:17:46.290Z,81.53
2023-02-16T02:21:20.194Z,81.46
2023-02-16T02:24:34.664Z,81.05
2023-02-16T02:27:49.367Z,81.19
2023-02-16T02:31:12.945Z,81.13
2023-02-16T02:34:20.499Z,80.63
2023-02-16T02:37:35.675Z,80.59
2023-02-16T02:40:47.564Z,80.73
2023-02-16T02:43:56.854Z,80.54
2023-02-16T02:47:01.026Z,81.08
2023-02-16T02:50:04.088Z,81.24
2023-02-16T02:53:13.902Z,81.19
2023-02-16T02:56:36.468Z,81.25
2023-02-16T03:00:02.885Z,81.49
2023-02-16T03:03:20.057Z,81.95
2023-02-16T03:06:46.031Z,82.45
2023-02-16T03:10:08.802Z,82.55
2023-02-16T03:13:21.383Z,82.46
2023-02-16T03:16:31.151Z,82.36
2023-02-16T03:19:52.211Z,82.25
2023-02-16T03:23:14.457Z,82.06
2023-02-16T03:26:37.775Z,82.30
2023-02-16T03:29:40.993Z,82.32
2023-02-16T03:32:44.817Z,82.51
2023-02-16T03:35:48.122Z,82.55
2023-02-16T03:38:51.375Z,82.59
2023-02-16T03:41:56.153Z,82.58
2023-02-16T03:44:58.658Z,82.52
2023-02-16T03:48:02.046Z,82.07
2023-02-16T03:51:04.767Z,82.03
2023-02-16T03:54:07.990Z,81.98
2023-02-16T03:57:10.405Z,81.94
2023-02-16T04:00:13.454Z,81.88
2023-02-16T04:03:15.941Z,81.86
2023-02-16T04:06:18.632Z,81.97
2023-02-16T04:09:21.037Z,81.65
2023-02-16T04:12:39.097Z,81.51
2023-02-16T04:15:41.656Z,81.61
2023-02-16T04:18:44.410Z,81.62
2023-02-16T04:21:46.724Z,81.49
2023-02-16T04:24:49.340Z,81.83
2023-02-16T04:27:52.154Z,82.26
2023-02-16T04:30:55.047Z,83.07
2023-02-16T04:33:57.560Z,83.79
2023-02-16T04:37:00.173Z,84.06
2023-02-16T04:40:03.703Z,84.00
2023-02-16T04:43:06.358Z,84.28
2023-02-16T04:46:08.820Z,84.67
2023-02-16T04:49:11.541Z,84.89
2023-02-16T04:52:14.473Z,84.81
2023-02-16T04:55:17.164Z,85.22
2023-02-16T04:58:19.507Z,85.38
2023-02-16T05:01:24.586Z,85.33
2023-02-16T05:04:27.121Z,85.07
2023-02-16T05:07:30.113Z,84.62
2023-02-16T05:10:32.471Z,84.13
2023-02-16T05:13:54.635Z,83.76
2023-02-16T05:16:57.058Z,83.91
2023-02-16T05:20:01.834Z,84.04
2023-02-16T05:23:04.189Z,84.23
2023-02-16T05:26:06.924Z,84.19
2023-02-16T05:29:09.615Z,84.42
2023-02-16T05:32:12.552Z,84.28
2023-02-16T05:35:14.918Z,84.50
2023-02-16T05:38:17.581Z,84.46
2023-02-16T05:41:25.684Z,84.67
2023-02-16T05:44:28.411Z,84.88
2023-02-16T05:47:30.853Z,84.76
2023-02-16T05:50:33.505Z,84.75
2023-02-16T05:53:35.842Z,84.62
2023-02-16T05:56:50.146Z,84.83
2023-02-16T05:59:52.703Z,84.63
2023-02-16T06:02:55.409Z,84.34
2023-02-16T06:06:00.603Z,84.36
2023-02-16T06:09:07.384Z,84.41
2023-02-16T06:12:10.073Z,84.33
2023-02-16T06:15:12.748Z,84.29
2023-02-16T06:18:15.482Z,83.83
2023-02-16T06:21:17.783Z,82.86
2023-02-16T06:24:20.411Z,83.74
2023-02-16T06:27:22.977Z,83.91
2023-02-16T06:30:26.212Z,83.71
2023-02-16T06:33:28.659Z,83.69
2023-02-16T06:36:31.479Z,83.69
2023-02-16T06:39:33.844Z,83.45
2023-02-16T06:42:37.468Z,83.27
2023-02-16T06:45:39.871Z,82.88
2023-02-16T06:48:42.600Z,80.94
2023-02-16T06:51:46.988Z,80.79
2023-02-16T06:54:49.634Z,80.63
2023-02-16T06:57:51.935Z,80.65
2023-02-16T07:00:55.504Z,80.11
2023-02-16T07:03:58.275Z,80.08
2023-02-16T07:07:01.048Z,80.13
2023-02-16T07:10:04.128Z,80.62
2023-02-16T07:13:06.764Z,80.62
2023-02-16T07:16:10.029Z,80.46
2023-02-16T07:19:13.123Z,80.40
2023-02-16T07:22:16.739Z,80.59
2023-02-16T07:25:19.528Z,79.94
2023-02-16T07:28:22.050Z,79.83
2023-02-16T07:31:28.031Z,79.65
2023-02-16T07:34:30.526Z,79.37
2023-02-16T07:37:33.166Z,78.96
2023-02-16T07:40:35.912Z,78.76
2023-02-16T07:43:39.334Z,78.44
2023-02-16T07:46:41.756Z,78.06
2023-02-16T07:49:44.398Z,77.60
2023-02-16T07:52:46.758Z,77.10
2023-02-16T07:55:49.378Z,76.67
2023-02-16T07:58:53.160Z,76.21
2023-02-16T08:01:56.082Z,75.57
2023-02-16T08:04:58.748Z,75.06
2023-02-16T08:08:01.082Z,74.97
2023-02-16T08:11:15.905Z,74.61
2023-02-16T08:14:18.330Z,74.43
2023-02-16T08:17:20.984Z,73.57
2023-02-16T08:20:28.386Z,72.98
2023-02-16T08:23:38.091Z,72.65
2023-02-16T08:26:43.186Z,72.38
2023-02-16T08:29:45.837Z,72.12
2023-02-16T08:32:50.872Z,71.95
2023-02-16T08:35:53.596Z,71.78
2023-02-16T08:38:56.279Z,71.29
2023-02-16T08:42:01.207Z,71.26
2023-02-16T08:45:05.526Z,70.81
2023-02-16T08:48:09.858Z,70.38
2023-02-16T08:51:17.731Z,69.54
2023-02-16T08:54:25.621Z,68.51
2023-02-16T08:57:28.014Z,67.92
2023-02-16T09:00:37.721Z,68.20
2023-02-16T09:03:42.881Z,67.71
2023-02-16T09:06:48.516Z,67.02
2023-02-16T09:09:51.361Z,66.90
2023-02-16T09:12:54.571Z,66.65
2023-02-16T09:16:05.673Z,66.77
2023-02-16T09:19:08.436Z,66.46
2023-02-16T09:22:10.812Z,66.21
2023-02-16T09:25:13.762Z,65.95
2023-02-16T09:28:16.130Z,65.63
2023-02-16T09:31:31.172Z,65.26
2023-02-16T09:34:33.737Z,65.39
2023-02-16T09:37:37.644Z,64.51
2023-02-16T09:40:40.027Z,64.73
2023-02-16T09:43:57.468Z,64.42
2023-02-16T09:47:03.525Z,64.44
2023-02-16T09:50:27.689Z,64.50
2023-02-16T09:53:43.232Z,64.19
2023-02-16T09:57:03.129Z,64.14
2023-02-16T10:00:11.811Z,64.12
2023-02-16T10:03:20.673Z,64.03
2023-02-16T10:06:41.504Z,63.79
2023-02-16T10:09:49.021Z,63.80
2023-02-16T10:13:05.260Z,64.05
2023-02-16T10:16:14.302Z,64.17
2023-02-16T10:20:11.960Z,63.68
2023-02-16T10:23:47.758Z,63.49
2023-02-16T10:26:59.781Z,63.91
2023-02-16T10:30:02.661Z,64.18
2023-02-16T10:33:41.650Z,64.21
2023-02-16T10:37:00.624Z,63.22
2023-02-16T10:40:25.901Z,62.66
2023-02-16T10:43:54.134Z,62.93
2023-02-16T10:47:12.202Z,62.67
2023-02-16T10:50:38.918Z,62.75
2023-02-16T10:53:41.359Z,62.71
2023-02-16T10:57:04.217Z,62.81
2023-02-16T11:00:11.581Z,62.23
2023-02-16T11:03:15.647Z,62.12
2023-02-16T11:06:21.900Z,61.77
2023-02-16T11:09:28.558Z,61.58
2023-02-16T11:12:31.075Z,61.89
2023-02-16T11:15:37.184Z,62.22
2023-02-16T11:19:02.514Z,62.75
2023-02-16T11:22:07.402Z,62.41
2023-02-16T11:25:22.073Z,62.03
2023-02-16T11:28:39.597Z,62.85
2023-02-16T11:31:42.066Z,63.29
2023-02-16T11:34:47.276Z,62.71
2023-02-16T11:37:49.829Z,62.72
2023-02-16T11:40:53.737Z,62.33
2023-02-16T11:43:56.751Z,62.08
2023-02-16T11:47:02.861Z,61.86
2023-02-16T11:50:09.728Z,61.65
2023-02-16T11:53:23.151Z,62.18
2023-02-16T11:56:29.287Z,62.04
2023-02-16T11:59:38.744Z,61.92
2023-02-16T12:02:41.041Z,61.71
2023-02-16T12:06:13.032Z,61.75
2023-02-16T12:09:24.400Z,61.43
2023-02-16T12:12:57.937Z,61.79
2023-02-16T12:16:30.910Z,61.83
2023-02-16T12:20:22.902Z,61.68
2023-02-16T12:23:52.385Z,61.57
2023-02-16T12:27:06.033Z,61.55
2023-02-16T12:30:11.489Z,61.38
2023-02-16T12:33:26.820Z,61.17
2023-02-16T12:36:59.897Z,61.52
2023-02-16T12:40:26.200Z,61.18
2023-02-16T12:43:41.816Z,61.18
2023-02-16T12:46:47.312Z,61.51
2023-02-16T12:49:54.040Z,61.46
2023-02-16T12:53:26.945Z,61.12
2023-02-16T12:56:39.305Z,61.64
2023-02-16T12:59:50.903Z,61.96
2023-02-16T13:03:00.340Z,61.27
2023-02-16T13:06:08.633Z,60.94
2023-02-16T13:09:17.262Z,60.65
2023-02-16T13:12:34.482Z,60.33
2023-02-16T13:15:45.813Z,60.71
2023-02-16T13:18:50.813Z,60.58
2023-02-16T13:21:53.112Z,60.75
2023-02-16T13:25:05.263Z,60.93
2023-02-16T13:28:24.132Z,60.64
2023-02-16T13:31:41.493Z,60.50
2023-02-16T13:34:58.732Z,60.47
2023-02-16T13:38:40.909Z,60.09
2023-02-16T13:41:55.637Z,60.29
2023-02-16T13:45:01.366Z,60.32
2023-02-16T13:48:21.474Z,59.85
2023-02-16T13:51:27.820Z,59.62
2023-02-16T13:54:33.014Z,59.57
2023-02-16T13:57:50.915Z,59.62
2023-02-16T14:00:54.721Z,59.56
2023-02-16T14:03:58.004Z,59.59
2023-02-16T14:07:03.376Z,59.22
2023-02-16T14:10:06.785Z,58.97
2023-02-16T14:13:13.084Z,58.76
2023-02-16T14:16:18.873Z,58.44
2023-02-16T14:19:26.764Z,58.21
2023-02-16T14:22:50.349Z,58.43
2023-02-16T14:26:03.116Z,58.30
2023-02-16T14:29:35.374Z,58.78
2023-02-16T14:32:38.712Z,58.61
2023-02-16T14:36:08.065Z,58.64
2023-02-16T14:39:12.189Z,58.52
2023-02-16T14:42:26.470Z,58.13
2023-02-16T14:45:50.798Z,58.29
2023-02-16T14:49:15.152Z,57.97
2023-02-16T14:52:37.286Z,58.07
2023-02-16T14:56:06.819Z,57.67
2023-02-16T14:59:12.412Z,57.61
2023-02-16T15:02:36.480Z,56.96
2023-02-16T15:05:38.943Z,56.66
2023-02-16T15:08:48.621Z,56.52
2023-02-16T15:12:13.326Z,56.78
2023-02-16T15:15:23.991Z,57.03
2023-02-16T15:18:40.460Z,57.56
2023-02-16T15:21:43.775Z,57.29
2023-02-16T15:25:01.835Z,57.29
2023-02-16T15:28:10.626Z,57.21
2023-02-16T15:31:18.759Z,57.64
2023-02-16T15:34:37.860Z,57.97
2023-02-16T15:37:40.543Z,58.39
2023-02-16T15:40:43.584Z,58.10
2023-02-16T15:43:50.553Z,58.38
2023-02-16T15:47:16.044Z,58.54
2023-02-16T15:50:23.997Z,59.03
2023-02-16T15:53:45.215Z,59.26
2023-02-16T15:56:55.632Z,60.07
2023-02-16T16:00:05.109Z,59.98
2023-02-16T16:03:17.200Z,60.20
2023-02-16T16:06:20.221Z,60.39
2023-02-16T16:09:42.531Z,60.58
2023-02-16T16:12:49.459Z,60.67
2023-02-16T16:15:53.892Z,60.93
2023-02-16T16:19:06.767Z,61.22
2023-02-16T16:22:27.201Z,61.52
2023-02-16T16:25:35.545Z,61.92
2023-02-16T16:28:38.068Z,62.09
2023-02-16T16:31:41.817Z,62.30
2023-02-16T16:34:44.329Z,62.80
2023-02-16T16:37:51.341Z,62.70
2023-02-16T16:40:57.155Z,62.93
2023-02-16T16:43:59.906Z,62.88
2023-02-16T16:47:34.707Z,63.08
2023-02-16T16:50:39.794Z,63.21
2023-02-16T16:53:54.472Z,63.18
2023-02-16T16:56:57.463Z,63.65
2023-02-16T16:59:59.840Z,63.47
2023-02-16T17:03:04.865Z,63.69
2023-02-16T17:06:08.478Z,63.45
2023-02-16T17:09:11.113Z,63.71
2023-02-16T17:12:13.599Z,65.12
2023-02-16T17:15:39.604Z,66.39
2023-02-16T17:18:41.978Z,66.86
2023-02-16T17:21:46.054Z,67.27
2023-02-16T17:24:48.417Z,67.56
2023-02-16T17:27:51.317Z,67.64
2023-02-16T17:30:53.771Z,67.77
2023-02-16T17:33:56.449Z,67.84
2023-02-16T17:37:02.934Z,68.13
2023-02-16T17:40:15.112Z,68.37
2023-02-16T17:43:18.584Z,68.10
2023-02-16T17:46:22.744Z,67.98
2023-02-16T17:49:25.186Z,67.69
2023-02-16T17:52:27.857Z,68.09
2023-02-16T17:55:30.244Z,68.69
2023-02-16T17:58:32.917Z,69.05
2023-02-16T18:01:35.454Z,69.15
2023-02-16T18:04:41.144Z,69.15
2023-02-16T18:07:43.586Z,69.31
2023-02-16T18:10:54.582Z,69.96
2023-02-16T18:13:57.860Z,70.14
2023-02-16T18:17:01.585Z,70.23
2023-02-16T18:20:05.064Z,70.46
2023-02-16T18:23:07.956Z,70.54
2023-02-16T18:26:14.253Z,70.45
2023-02-16T18:29:17.128Z,70.52
2023-02-16T18:32:19.476Z,70.60
2023-02-16T18:35:22.135Z,70.66
2023-02-16T18:38:25.302Z,70.66
2023-02-16T18:41:28.213Z,70.72
2023-02-16T18:44:30.531Z,70.75
2023-02-16T18:47:33.607Z,70.86
2023-02-16T18:50:36.287Z,71.10
2023-02-16T18:53:39.197Z,71.20
2023-02-16T18:56:41.566Z,71.15
2023-02-16T18:59:44.388Z,70.67
2023-02-16T19:02:47.137Z,70.56
2023-02-16T19:05:49.902Z,70.71
2023-02-16T19:08:52.716Z,70.58
2023-02-16T19:11:55.709Z,70.32
2023-02-16T19:14:58.204Z,70.30
2023-02-16T19:18:01.040Z,70.53
2023-02-16T19:21:09.157Z,70.66
2023-02-16T19:24:12.918Z,70.75
2023-02-16T19:27:15.375Z,70.86
2023-02-16T19:30:21.551Z,71.20
2023-02-16T19:33:24.033Z,71.73
2023-02-16T19:36:30.626Z,71.61
2023-02-16T19:39:33.032Z,71.79
2023-02-16T19:42:36.875Z,72.00
2023-02-16T19:45:41.234Z,72.11
2023-02-16T19:48:45.992Z,72.28
2023-02-16T19:51:48.590Z,72.26
2023-02-16T19:54:51.283Z,72.05
2023-02-16T19:57:53.636Z,72.43
2023-02-16T20:00:56.340Z,72.49
2023-02-16T20:04:00.160Z,72.71
2023-02-16T20:07:03.289Z,72.49
2023-02-16T20:10:06.919Z,72.47
2023-02-16T20:13:09.856Z,72.65
2023-02-16T20:16:14.291Z,72.67
2023-02-16T20:19:16.759Z,72.72
2023-02-16T20:22:20.526Z,72.77
2023-02-16T20:25:22.925Z,72.54
2023-02-16T20:28:26.797Z,73.31
2023-02-16T20:31:43.440Z,73.24
2023-02-16T20:34:46.127Z,73.32
2023-02-16T20:37:48.608Z,73.22
2023-02-16T20:40:51.269Z,73.10
2023-02-16T20:43:53.836Z,73.10
2023-02-16T20:46:56.725Z,73.28
2023-02-16T20:49:59.158Z,73.73
2023-02-16T20:53:01.849Z,73.78
2023-02-16T20:56:09.015Z,73.76
2023-02-16T20:59:12.069Z,73.89
2023-02-16T21:02:14.454Z,73.87
2023-02-16T21:05:18.309Z,74.08
2023-02-16T21:08:21.022Z,74.32
2023-02-16T21:11:24.211Z,74.91
2023-02-16T21:14:26.601Z,74.36
2023-02-16T21:17:29.377Z,74.90
2023-02-16T21:20:31.819Z,74.76
2023-02-16T21:23:34.523Z,74.88
2023-02-16T21:26:36.958Z,74.32
2023-02-16T21:29:39.790Z,74.22
2023-02-16T21:32:42.205Z,74.46
2023-02-16T21:35:45.017Z,74.27
2023-02-16T21:38:48.172Z,74.55
2023-02-16T21:41:50.923Z,75.07
2023-02-16T21:45:12.410Z,75.30
2023-02-16T21:48:34.014Z,75.81
2023-02-16T21:51:38.417Z,75.10
2023-02-16T21:54:59.719Z,75.12
2023-02-16T21:58:02.567Z,75.41
2023-02-16T22:01:05.368Z,75.67
2023-02-16T22:04:10.619Z,75.12
2023-02-16T22:07:12.991Z,75.35
2023-02-16T22:10:15.696Z,74.67
2023-02-16T22:13:18.050Z,74.35
2023-02-16T22:16:20.892Z,73.82
2023-02-16T22:19:23.264Z,73.55
2023-02-16T22:22:25.854Z,73.54
2023-02-16T22:25:28.181Z,73.22
2023-02-16T22:28:30.961Z,72.76
2023-02-16T22:31:33.860Z,72.91
2023-02-16T22:34:36.854Z,72.96
2023-02-16T22:37:39.258Z,73.35
2023-02-16T22:40:42.081Z,73.29
2023-02-16T22:43:44.522Z,73.46
2023-02-16T22:46:47.369Z,73.45
2023-02-16T22:49:49.730Z,73.05
2023-02-16T22:52:53.166Z,73.03
2023-02-16T22:55:55.611Z,72.87
2023-02-16T22:58:59.427Z,73.13
2023-02-16T23:02:01.713Z,73.61
2023-02-16T23:05:05.694Z,73.85
2023-02-16T23:08:09.093Z,74.12
2023-02-16T23:11:12.529Z,74.35
2023-02-16T23:14:19.453Z,74.42
2023-02-16T23:17:22.086Z,74.40
2023-02-16T23:20:24.437Z,74.30
2023-02-16T23:23:27.066Z,74.61
2023-02-16T23:26:31.229Z,74.88
2023-02-16T23:29:34.052Z,74.04
2023-02-16T23:32:36.474Z,74.69
2023-02-16T23:35:40.964Z,74.25
2023-02-16T23:38:43.659Z,74.97
2023-02-16T23:41:46.767Z,74.47
2023-02-16T23:44:49.167Z,74.61
2023-02-16T23:47:52.041Z,74.93
2023-02-16T23:50:54.681Z,75.23
2023-02-16T23:53:57.349Z,75.65
2023-02-16T23:56:59.764Z,75.92
